createdAt,value
2023-06-30T00:04:10.768Z,19.92
2023-06-30T00:09:09.461Z,19.85
2023-06-30T00:14:09.314Z,19.77
2023-06-30T00:19:09.234Z,19.73
2023-06-30T00:24:09.217Z,19.68
2023-06-30T00:29:08.915Z,19.64
2023-06-30T00:34:08.622Z,19.62
2023-06-30T00:39:09.228Z,19.69
2023-06-30T00:44:08.742Z,19.75
2023-06-30T00:49:08.991Z,19.62
2023-06-30T00:54:06.211Z,19.54
2023-06-30T00:58:47.636Z,19.44
2023-06-30T01:03:47.642Z,19.39
2023-06-30T01:08:47.759Z,19.44
2023-06-30T01:13:47.379Z,19.46
2023-06-30T01:18:48.339Z,19.51
2023-06-30T01:23:47.723Z,19.56
2023-06-30T01:28:47.972Z,19.45
2023-06-30T01:33:45.272Z,19.41
2023-06-30T01:38:44.692Z,19.45
2023-06-30T01:43:44.452Z,19.43
2023-06-30T01:48:44.885Z,19.37
2023-06-30T01:53:44.487Z,19.37
2023-06-30T01:58:44.684Z,19.4
2023-06-30T02:03:45.333Z,19.43
2023-06-30T02:08:45.054Z,19.45
2023-06-30T02:13:46.052Z,19.51
2023-06-30T02:18:42.249Z,19.46
2023-06-30T02:23:42.093Z,19.18
2023-06-30T02:28:42.192Z,19.01
2023-06-30T02:33:42.548Z,18.85
2023-06-30T02:38:42.548Z,19
2023-06-30T02:43:42.649Z,19.19
2023-06-30T02:48:41.948Z,19.21
2023-06-30T02:53:41.903Z,19.24
2023-06-30T02:58:39.636Z,19.06
2023-06-30T03:01:18.968Z,19.06
2023-06-30T03:05:12.225Z,19.09
2023-06-30T03:10:12.977Z,19.04
2023-06-30T03:15:12.950Z,18.95
2023-06-30T03:20:13.624Z,18.84
2023-06-30T03:25:14.394Z,18.68
2023-06-30T03:30:11.439Z,18.62
2023-06-30T03:35:11.241Z,18.62
2023-06-30T03:40:11.420Z,18.54
2023-06-30T03:45:11.219Z,18.51
2023-06-30T03:50:11.506Z,18.48
2023-06-30T03:55:11.463Z,18.54
2023-06-30T03:59:33.273Z,18.54
2023-06-30T04:04:32.566Z,18.57
2023-06-30T04:09:32.744Z,18.61
2023-06-30T04:14:33.243Z,18.68
2023-06-30T04:19:32.439Z,18.7
2023-06-30T04:24:32.563Z,18.64
2023-06-30T04:29:32.934Z,18.48
2023-06-30T04:34:33.352Z,18.37
2023-06-30T04:39:30.608Z,18.34
2023-06-30T04:44:30.133Z,18.27
2023-06-30T04:49:29.772Z,18.18
2023-06-30T04:54:30.019Z,18.19
2023-06-30T04:59:09.012Z,18.2
2023-06-30T05:04:08.924Z,18.27
2023-06-30T05:09:09.353Z,18.41
2023-06-30T05:14:09.076Z,18.44
2023-06-30T05:19:10.043Z,18.62
2023-06-30T05:24:06.297Z,18.71
2023-06-30T05:29:06.107Z,18.76
2023-06-30T05:34:06.001Z,18.91
2023-06-30T05:39:06.335Z,19.04
2023-06-30T05:44:06.136Z,19.12
2023-06-30T05:49:06.303Z,19.12
2023-06-30T05:54:06.069Z,19.11
2023-06-30T05:58:49.178Z,19.12
2023-06-30T06:03:47.937Z,19.32
2023-06-30T06:08:47.505Z,19.46
2023-06-30T06:13:47.166Z,19.54
2023-06-30T06:18:48.928Z,19.5
2023-06-30T06:23:47.314Z,19.54
2023-06-30T06:28:47.663Z,19.58
2023-06-30T06:33:46.954Z,19.53
2023-06-30T06:38:47.133Z,19.45
2023-06-30T06:43:45.495Z,19.45
2023-06-30T06:48:45.838Z,19.39
2023-06-30T06:53:45.841Z,19.29
2023-06-30T06:58:45.701Z,19.37
2023-06-30T07:03:45.369Z,19.45
2023-06-30T07:08:45.067Z,19.68
2023-06-30T07:13:45.777Z,19.94
2023-06-30T07:18:45.270Z,20.29
2023-06-30T07:23:45.512Z,20.61
2023-06-30T07:28:42.973Z,20.79
2023-06-30T07:33:42.448Z,20.74
2023-06-30T07:38:42.424Z,20.77
2023-06-30T07:43:42.615Z,20.54
2023-06-30T07:48:42.629Z,20.41
2023-06-30T07:53:42.843Z,20.29
2023-06-30T07:58:42.568Z,20.55
2023-06-30T08:00:48.386Z,20.64
2023-06-30T08:05:15.014Z,20.9
2023-06-30T08:10:04.474Z,21.08
2023-06-30T08:15:04.576Z,20.86
2023-06-30T08:20:05.103Z,20.4
2023-06-30T08:25:04.811Z,20.15
2023-06-30T08:30:05.000Z,19.91
2023-06-30T08:35:04.459Z,19.84
2023-06-30T08:40:04.444Z,19.82
2023-06-30T08:45:13.364Z,19.83
2023-06-30T08:50:13.637Z,19.86
2023-06-30T08:55:13.482Z,19.91
2023-06-30T08:59:35.437Z,20.04
2023-06-30T09:04:35.306Z,20.03
2023-06-30T09:09:35.972Z,20.1
2023-06-30T09:14:35.726Z,20.2
2023-06-30T09:19:35.677Z,20.16
2023-06-30T09:24:33.005Z,20.18
2023-06-30T09:29:32.540Z,19.81
2023-06-30T09:34:32.757Z,19.7
2023-06-30T09:39:32.190Z,19.95
2023-06-30T09:44:32.002Z,20.12
2023-06-30T09:49:32.339Z,20.33
2023-06-30T09:59:07.566Z,20.5
2023-06-30T10:04:05.055Z,20.77
2023-06-30T10:09:06.625Z,20.83
2023-06-30T10:14:04.420Z,21.12
2023-06-30T10:19:05.050Z,21.16
2023-06-30T10:24:04.405Z,21.11
2023-06-30T10:29:04.639Z,21.17
2023-06-30T10:34:05.188Z,21.42
2023-06-30T10:39:04.952Z,21.62
2023-06-30T10:44:06.195Z,21.96
2023-06-30T10:49:13.234Z,22.21
2023-06-30T10:54:13.877Z,22.21
2023-06-30T10:58:46.159Z,22.42
2023-06-30T11:03:45.728Z,22.71
2023-06-30T11:08:46.172Z,22.87
2023-06-30T11:13:45.954Z,22.83
2023-06-30T11:18:46.445Z,23.64
2023-06-30T11:23:43.762Z,23.54
2023-06-30T11:28:43.194Z,23.46
2023-06-30T11:33:43.022Z,23.57
2023-06-30T11:38:43.108Z,22.42
2023-06-30T11:43:42.692Z,21.44
2023-06-30T11:48:42.464Z,20.57
2023-06-30T11:53:42.663Z,20.2
2023-06-30T11:58:42.076Z,19.59
2023-06-30T12:03:43.020Z,18.91
2023-06-30T12:08:38.836Z,18.45
2023-06-30T12:13:38.108Z,18.02
2023-06-30T12:18:38.013Z,17.53
2023-06-30T12:23:37.755Z,17.18
2023-06-30T12:28:37.358Z,16.94
2023-06-30T12:33:37.457Z,16.76
2023-06-30T12:38:37.136Z,16.57
2023-06-30T12:43:37.125Z,16.62
2023-06-30T12:48:34.414Z,16.68
2023-06-30T12:53:34.012Z,16.79
2023-06-30T12:58:33.969Z,16.74
2023-06-30T13:00:40.094Z,16.75
2023-06-30T13:04:56.332Z,16.91
2023-06-30T13:09:56.729Z,16.89
2023-06-30T13:14:56.164Z,17.02
2023-06-30T13:19:56.183Z,17.15
2023-06-30T13:24:54.694Z,17.36
2023-06-30T13:29:54.171Z,17.44
2023-06-30T13:34:54.816Z,17.59
2023-06-30T13:39:55.272Z,17.76
2023-06-30T13:44:55.055Z,18.04
2023-06-30T13:49:55.338Z,18.37
2023-06-30T13:54:54.975Z,18.51
2023-06-30T13:59:18.192Z,18.77
2023-06-30T14:04:17.028Z,19.2
2023-06-30T14:09:16.611Z,19.85
2023-06-30T14:14:16.625Z,20.17
2023-06-30T14:19:17.020Z,19.98
2023-06-30T14:24:16.910Z,20.36
2023-06-30T14:29:17.556Z,20.68
2023-06-30T14:34:16.777Z,20.41
2023-06-30T14:39:16.744Z,20.76
2023-06-30T14:44:15.347Z,21.01
2023-06-30T14:49:14.978Z,21.37
2023-06-30T14:54:14.569Z,21.48
2023-06-30T14:59:14.754Z,21.03
2023-06-30T15:04:04.499Z,21.24
2023-06-30T15:09:04.453Z,21.57
2023-06-30T15:14:04.964Z,21.96
2023-06-30T15:19:04.842Z,22.17
2023-06-30T15:24:05.822Z,22.15
2023-06-30T15:29:12.606Z,21.54
2023-06-30T15:34:12.664Z,21.28
2023-06-30T15:39:12.783Z,21.19
2023-06-30T15:44:13.344Z,21.28
2023-06-30T15:49:13.512Z,21.06
2023-06-30T15:54:14.218Z,21.1
2023-06-30T15:59:11.539Z,20.97
2023-06-30T16:04:11.936Z,20.67
2023-06-30T16:09:11.837Z,20.49
2023-06-30T16:14:12.376Z,20.5
2023-06-30T16:19:12.725Z,20.41
2023-06-30T16:24:13.168Z,20.49
2023-06-30T16:29:11.372Z,20.29
2023-06-30T16:34:11.593Z,20.28
2023-06-30T16:39:11.457Z,20.16
2023-06-30T16:44:11.557Z,19.95
2023-06-30T16:49:11.372Z,19.79
2023-06-30T16:54:11.766Z,19.79
2023-06-30T16:59:09.711Z,19.89
2023-06-30T17:03:55.120Z,19.79
2023-06-30T17:08:54.635Z,19.75
2023-06-30T17:13:54.537Z,19.79
2023-06-30T17:18:54.893Z,19.99
2023-06-30T17:23:54.708Z,20.06
2023-06-30T17:28:55.045Z,20
2023-06-30T17:33:54.544Z,19.96
2023-06-30T17:38:56.037Z,19.98
2023-06-30T17:43:52.417Z,20
2023-06-30T17:48:51.983Z,19.94
2023-06-30T17:53:51.841Z,19.96
2023-06-30T17:58:52.172Z,20.06
2023-06-30T18:03:51.827Z,20.1
2023-06-30T18:08:52.133Z,20.12
2023-06-30T18:13:51.802Z,20.1
2023-06-30T18:18:51.734Z,19.99
2023-06-30T18:23:50.549Z,19.92
2023-06-30T18:28:50.573Z,19.86
2023-06-30T18:33:50.272Z,19.81
2023-06-30T18:38:50.491Z,19.71
2023-06-30T18:43:50.044Z,19.69
2023-06-30T18:48:49.941Z,19.62
2023-06-30T18:53:50.129Z,19.57
2023-06-30T18:58:49.911Z,19.49
2023-06-30T19:03:50.210Z,19.49
2023-06-30T19:08:47.572Z,19.44
2023-06-30T19:13:47.064Z,19.4
2023-06-30T19:18:47.373Z,19.37
2023-06-30T19:23:46.669Z,19.32
2023-06-30T19:28:46.712Z,19.29
2023-06-30T19:33:46.765Z,19.28
2023-06-30T19:38:46.469Z,19.29
2023-06-30T19:43:46.428Z,19.28
2023-06-30T19:48:43.923Z,19.23
2023-06-30T19:53:43.016Z,19.2
2023-06-30T19:58:42.998Z,19.18
2023-06-30T20:03:42.993Z,19.16
2023-06-30T20:08:42.803Z,19.12
2023-06-30T20:13:42.532Z,19.09
2023-06-30T20:18:43.227Z,19.04
2023-06-30T20:23:42.764Z,19.02
2023-06-30T20:28:43.967Z,18.99
2023-06-30T20:33:40.098Z,18.96
2023-06-30T20:38:39.884Z,18.89
2023-06-30T20:43:39.534Z,18.86
2023-06-30T20:48:40.040Z,18.82
2023-06-30T20:53:39.847Z,18.76
2023-06-30T20:58:40.842Z,18.73
2023-06-30T21:00:47.778Z,18.71
2023-06-30T21:05:05.876Z,18.7
2023-06-30T21:10:12.600Z,18.67
2023-06-30T21:15:13.411Z,18.67
2023-06-30T21:20:13.082Z,18.64
2023-06-30T21:25:13.998Z,18.62
2023-06-30T21:30:14.414Z,18.62
2023-06-30T21:35:13.793Z,18.57
2023-06-30T21:40:12.149Z,18.54
2023-06-30T21:45:12.159Z,18.53
2023-06-30T21:50:11.915Z,18.49
2023-06-30T21:55:12.267Z,18.53
2023-06-30T21:59:35.592Z,18.5
2023-06-30T22:04:34.958Z,18.45
2023-06-30T22:09:34.756Z,18.41
2023-06-30T22:14:35.672Z,18.4
2023-06-30T22:19:32.791Z,18.39
2023-06-30T22:24:31.559Z,18.37
2023-06-30T22:29:31.684Z,18.36
2023-06-30T22:34:31.459Z,18.36
2023-06-30T22:39:31.589Z,18.27
2023-06-30T22:44:31.936Z,18.2
2023-06-30T22:49:31.686Z,18.12
2023-06-30T22:54:32.652Z,18.04
2023-06-30T22:59:07.123Z,17.95
2023-06-30T23:04:06.749Z,17.86
2023-06-30T23:09:06.952Z,17.74
2023-06-30T23:14:06.954Z,17.62
2023-06-30T23:19:06.774Z,17.53
2023-06-30T23:24:06.823Z,17.45
2023-06-30T23:29:06.502Z,17.33
2023-06-30T23:34:06.103Z,17.25
2023-06-30T23:39:04.507Z,17.14
2023-06-30T23:44:14.413Z,17.04
2023-06-30T23:49:14.141Z,16.99
2023-06-30T23:54:14.288Z,16.93
2023-06-30T23:58:47.377Z,16.87
